createdAt,value
2019-04-02T00:00:25.474Z,96425.56
2019-04-02T00:02:57.261Z,96421.81
2019-04-02T00:05:28.977Z,96425.02
2019-04-02T00:08:00.759Z,96422.92
2019-04-02T00:10:32.485Z,96415.74
2019-04-02T00:13:04.456Z,96413.74
2019-04-02T00:15:36.824Z,96413.35
2019-04-02T00:18:08.871Z,96419.50
2019-04-02T00:20:40.684Z,96413.84
2019-04-02T00:23:12.378Z,96410.31
2019-04-02T00:25:44.093Z,96414.24
2019-04-02T00:28:15.804Z,96412.86
2019-04-02T00:30:47.558Z,96412.19
2019-04-02T00:33:20.315Z,96409.78
2019-04-02T00:35:52.028Z,96411.28
2019-04-02T00:38:25.007Z,96411.70
2019-04-02T00:40:56.796Z,96408.80
2019-04-02T00:43:28.504Z,96414.97
2019-04-02T00:46:00.290Z,96410.82
2019-04-02T00:48:32.076Z,96414.00
2019-04-02T00:51:03.772Z,96411.91
2019-04-02T00:53:35.615Z,96410.27
2019-04-02T00:56:07.811Z,96403.61
2019-04-02T00:58:39.568Z,96402.20
2019-04-02T01:01:11.861Z,96404.38
2019-04-02T01:03:43.564Z,96400.31
2019-04-02T01:06:15.278Z,96396.48
2019-04-02T01:08:46.971Z,96394.20
2019-04-02T01:11:18.683Z,96394.42
2019-04-02T01:13:50.378Z,96389.45
2019-04-02T01:16:22.484Z,96386.77
2019-04-02T01:18:55.205Z,96379.81
2019-04-02T01:21:27.047Z,96381.23
2019-04-02T01:24:00.024Z,96384.55
2019-04-02T01:26:31.848Z,96373.65
2019-04-02T01:29:18.835Z,96375.45
2019-04-02T01:31:51.257Z,96375.39
2019-04-02T01:34:22.944Z,96367.13
2019-04-02T01:36:54.835Z,96369.62
2019-04-02T01:39:26.642Z,96367.19
2019-04-02T01:41:58.418Z,96364.57
2019-04-02T01:44:30.131Z,96361.16
2019-04-02T01:47:01.949Z,96356.84
2019-04-02T01:49:33.650Z,96348.26
2019-04-02T01:52:05.505Z,96356.09
2019-04-02T01:54:37.270Z,96349.33
2019-04-02T01:57:09.238Z,96343.44
2019-04-02T01:59:41.021Z,96346.12
2019-04-02T02:02:12.977Z,96339.70
2019-04-02T02:04:44.838Z,96345.73
2019-04-02T02:07:16.567Z,96338.20
2019-04-02T02:09:48.317Z,96341.78
2019-04-02T02:12:20.090Z,96336.22
2019-04-02T02:14:51.808Z,96334.30
2019-04-02T02:17:23.626Z,96331.66
2019-04-02T02:19:55.457Z,96328.70
2019-04-02T02:22:27.471Z,96322.76
2019-04-02T02:24:59.177Z,96325.23
2019-04-02T02:27:30.895Z,96321.25
2019-04-02T02:30:02.604Z,96319.45
2019-04-02T02:32:36.469Z,96315.85
2019-04-02T02:35:09.292Z,96315.03
2019-04-02T02:37:43.338Z,96310.89
2019-04-02T02:41:11.092Z,96315.42
2019-04-02T02:43:43.847Z,96302.67
2019-04-02T02:46:15.560Z,96299.02
2019-04-02T02:48:47.658Z,96297.00
2019-04-02T02:51:20.255Z,96300.97
2019-04-02T02:53:52.120Z,96300.95
2019-04-02T02:56:24.476Z,96299.16
2019-04-02T02:58:56.191Z,96289.80
2019-04-02T03:01:28.022Z,96294.53
2019-04-02T03:04:00.196Z,96292.69
2019-04-02T03:06:33.043Z,96290.72
2019-04-02T03:09:06.289Z,96283.55
2019-04-02T03:11:38.105Z,96287.45
2019-04-02T03:14:11.407Z,96285.94
2019-04-02T03:16:43.201Z,96280.20
2019-04-02T03:19:15.420Z,96284.61
2019-04-02T03:21:47.275Z,96287.59
2019-04-02T03:24:19.461Z,96284.27
2019-04-02T03:26:52.368Z,96276.08
2019-04-02T03:29:24.904Z,96274.74
2019-04-02T03:31:57.141Z,96280.14
2019-04-02T03:34:28.914Z,96278.61
2019-04-02T03:37:00.606Z,96275.94
2019-04-02T03:39:32.390Z,96276.36
2019-04-02T03:42:04.169Z,96266.86
2019-04-02T03:44:35.882Z,96267.41
2019-04-02T03:47:07.685Z,96264.80
2019-04-02T03:49:39.387Z,96257.69
2019-04-02T03:52:11.756Z,96261.13
2019-04-02T03:54:43.474Z,96268.15
2019-04-02T03:57:15.254Z,96256.38
2019-04-02T03:59:46.967Z,96257.92
2019-04-02T04:02:18.831Z,96260.28
2019-04-02T04:04:50.556Z,96260.83
2019-04-02T04:07:22.603Z,96250.86
2019-04-02T04:09:54.334Z,96253.02
2019-04-02T04:12:26.025Z,96247.62
2019-04-02T04:14:57.753Z,96244.59
2019-04-02T04:17:29.736Z,96255.48
2019-04-02T04:20:01.865Z,96251.52
2019-04-02T04:22:33.884Z,96254.62
2019-04-02T04:25:05.937Z,96257.72
2019-04-02T04:27:37.653Z,96250.23
2019-04-02T04:30:09.690Z,96252.75
2019-04-02T04:32:41.412Z,96248.06
2019-04-02T04:35:13.208Z,96235.02
2019-04-02T04:37:44.909Z,96240.18
2019-04-02T04:40:16.624Z,96235.84
2019-04-02T04:42:50.113Z,96233.23
2019-04-02T04:45:22.079Z,96237.38
2019-04-02T04:47:54.051Z,96233.00
2019-04-02T04:50:25.947Z,96226.22
2019-04-02T04:52:57.980Z,96233.40
2019-04-02T04:55:29.905Z,96227.48
2019-04-02T04:58:01.921Z,96233.69
2019-04-02T05:00:34.243Z,96227.35
2019-04-02T05:04:03.502Z,96231.19
2019-04-02T05:06:34.148Z,96221.23
2019-04-02T05:09:07.336Z,96228.14
2019-04-02T05:11:39.116Z,96227.73
2019-04-02T05:14:13.548Z,96224.44
2019-04-02T05:16:46.040Z,96227.86
2019-04-02T05:19:18.067Z,96231.52
2019-04-02T05:21:49.974Z,96236.78
2019-04-02T05:24:21.762Z,96230.45
2019-04-02T05:26:53.594Z,96222.29
2019-04-02T05:29:25.708Z,96222.97
2019-04-02T05:31:57.516Z,96226.03
2019-04-02T05:34:29.225Z,96222.73
2019-04-02T05:37:01.291Z,96216.78
2019-04-02T05:39:33.013Z,96221.67
2019-04-02T05:42:05.116Z,96211.91
2019-04-02T05:44:38.401Z,96210.25
2019-04-02T05:47:10.671Z,96209.63
2019-04-02T05:49:42.957Z,96207.37
2019-04-02T05:52:14.743Z,96209.19
2019-04-02T05:54:46.459Z,96203.12
2019-04-02T05:57:19.157Z,96206.91
2019-04-02T05:59:50.933Z,96203.60
2019-04-02T06:02:23.059Z,96201.95
2019-04-02T06:04:54.855Z,96202.19
2019-04-02T06:07:26.589Z,96192.53
2019-04-02T06:10:00.248Z,96194.00
2019-04-02T06:12:31.717Z,96186.83
2019-04-02T06:15:03.864Z,96184.88
2019-04-02T06:17:35.592Z,96186.55
2019-04-02T06:20:08.171Z,96176.97
2019-04-02T06:22:39.975Z,96177.38
2019-04-02T06:25:13.286Z,96180.01
2019-04-02T06:27:48.073Z,96176.09
2019-04-02T06:30:20.263Z,96174.50
2019-04-02T06:32:51.987Z,96174.17
2019-04-02T06:35:23.984Z,96168.99
2019-04-02T06:37:55.740Z,96159.55
2019-04-02T06:40:27.427Z,96166.16
2019-04-02T06:42:59.148Z,96156.36
2019-04-02T06:45:30.932Z,96153.80
2019-04-02T06:48:25.138Z,96147.09
2019-04-02T06:50:57.088Z,96147.24
2019-04-02T06:53:28.856Z,96152.67
2019-04-02T06:56:00.569Z,96147.44
2019-04-02T06:58:32.297Z,96144.66
2019-04-02T07:01:20.671Z,96145.00
2019-04-02T07:03:37.632Z,96141.11
2019-04-02T07:06:09.331Z,96143.42
2019-04-02T07:08:47.045Z,96137.55
2019-04-02T07:11:14.575Z,96130.05
2019-04-02T07:13:46.388Z,96128.09
2019-04-02T07:16:18.135Z,96127.77
2019-04-02T07:18:49.930Z,96129.44
2019-04-02T07:21:21.704Z,96123.84
2019-04-02T07:23:53.435Z,96120.92
2019-04-02T07:26:25.139Z,96123.22
2019-04-02T07:28:57.149Z,96117.30
2019-04-02T07:31:28.862Z,96118.95
2019-04-02T07:34:02.638Z,96117.47
2019-04-02T07:36:36.444Z,96115.34
2019-04-02T07:39:09.216Z,96118.81
2019-04-02T07:41:41.224Z,96116.34
2019-04-02T07:44:13.035Z,96114.37
2019-04-02T07:46:45.045Z,96114.83
2019-04-02T07:49:18.206Z,96112.05
2019-04-02T07:51:54.178Z,96111.39
2019-04-02T07:54:23.735Z,96113.64
2019-04-02T07:56:55.525Z,96112.49
2019-04-02T07:59:27.259Z,96116.25
2019-04-02T08:01:59.511Z,96112.28
2019-04-02T08:04:31.787Z,96111.91
2019-04-02T08:07:03.508Z,96111.20
2019-04-02T08:09:35.266Z,96113.14
2019-04-02T08:12:07.203Z,96115.09
2019-04-02T08:14:39.010Z,96121.13
2019-04-02T08:17:12.517Z,96126.86
2019-04-02T08:19:44.672Z,96118.64
2019-04-02T08:22:16.466Z,96121.92
2019-04-02T08:24:48.178Z,96117.58
2019-04-02T08:27:20.074Z,96116.10
2019-04-02T08:29:51.795Z,96115.61
2019-04-02T08:32:23.576Z,96107.35
2019-04-02T08:34:55.303Z,96104.48
2019-04-02T08:37:27.092Z,96102.91
2019-04-02T08:39:58.956Z,96103.19
2019-04-02T08:42:31.055Z,96099.63
2019-04-02T08:45:04.438Z,96090.78
2019-04-02T08:47:36.462Z,96098.22
2019-04-02T08:50:08.936Z,96095.15
2019-04-02T08:52:40.734Z,96095.42
2019-04-02T08:55:12.794Z,96099.64
2019-04-02T08:57:54.005Z,96086.54
2019-04-02T09:00:21.652Z,96080.98
2019-04-02T09:02:53.609Z,96078.27
2019-04-02T09:05:32.943Z,96075.22
2019-04-02T09:07:58.903Z,96075.06
2019-04-02T09:10:30.643Z,96071.75
2019-04-02T09:13:02.447Z,96068.41
2019-04-02T09:15:34.266Z,96068.57
2019-04-02T09:18:06.218Z,96061.55
2019-04-02T09:20:38.205Z,96059.06
2019-04-02T09:23:10.035Z,96058.46
2019-04-02T09:25:41.827Z,96057.94
2019-04-02T09:28:13.574Z,96052.22
2019-04-02T09:30:45.353Z,96045.79
2019-04-02T09:33:17.097Z,96046.22
2019-04-02T09:35:48.865Z,96042.95
2019-04-02T09:38:20.945Z,96041.94
2019-04-02T09:40:52.674Z,96034.77
2019-04-02T09:43:24.403Z,96027.19
2019-04-02T09:45:56.195Z,96026.81
2019-04-02T09:48:28.095Z,96026.48
2019-04-02T09:50:59.996Z,96028.59
2019-04-02T09:53:31.847Z,96022.95
2019-04-02T09:56:06.010Z,96011.94
2019-04-02T09:58:37.148Z,96010.88
2019-04-02T10:01:10.713Z,96007.94
2019-04-02T10:03:43.542Z,96005.01
2019-04-02T10:06:15.769Z,96001.63
2019-04-02T10:08:47.663Z,96005.31
2019-04-02T10:11:19.462Z,95997.30
2019-04-02T10:13:51.204Z,95994.00
2019-04-02T10:16:23.338Z,95990.04
2019-04-02T10:18:55.227Z,95989.95
2019-04-02T10:21:27.151Z,95977.94
2019-04-02T10:23:58.946Z,95974.28
2019-04-02T10:26:30.767Z,95980.09
2019-04-02T10:29:02.456Z,95975.48
2019-04-02T10:31:34.235Z,95965.20
2019-04-02T10:34:06.471Z,95972.20
2019-04-02T10:36:38.442Z,95961.71
2019-04-02T10:39:14.784Z,95955.59
2019-04-02T10:41:46.644Z,95958.23
2019-04-02T10:44:18.472Z,95954.60
2019-04-02T10:46:51.302Z,95945.41
2019-04-02T10:49:23.107Z,95942.55
2019-04-02T10:51:55.212Z,95945.45
2019-04-02T10:54:26.963Z,95935.66
2019-04-02T10:56:59.308Z,95932.91
2019-04-02T10:59:31.304Z,95932.70
2019-04-02T11:02:04.653Z,95927.53
2019-04-02T11:04:38.577Z,95922.66
2019-04-02T11:07:14.027Z,95919.53
2019-04-02T11:09:45.044Z,95916.94
2019-04-02T11:12:16.893Z,95912.55
2019-04-02T11:14:48.615Z,95909.33
2019-04-02T11:17:20.411Z,95907.58
2019-04-02T11:19:54.570Z,95909.66
2019-04-02T11:22:25.795Z,95902.06
2019-04-02T11:24:57.608Z,95901.66
2019-04-02T11:27:29.373Z,95902.38
2019-04-02T11:30:01.107Z,95895.50
2019-04-02T11:32:32.820Z,95891.84
2019-04-02T11:35:06.131Z,95880.76
2019-04-02T11:37:38.127Z,95880.28
2019-04-02T11:40:14.961Z,95879.43
2019-04-02T11:42:46.753Z,95868.64
2019-04-02T11:45:18.743Z,95865.09
2019-04-02T11:47:50.566Z,95862.96
2019-04-02T11:50:22.454Z,95858.09
2019-04-02T11:52:54.907Z,95860.84
2019-04-02T11:55:26.634Z,95857.84
2019-04-02T11:57:58.408Z,95858.33
2019-04-02T12:00:31.394Z,95854.48
2019-04-02T12:03:03.440Z,95853.64
2019-04-02T12:05:36.539Z,95841.23
2019-04-02T12:08:14.950Z,95844.00
2019-04-02T12:10:42.395Z,95837.95
2019-04-02T12:13:14.100Z,95834.33
2019-04-02T12:15:50.207Z,95832.84
2019-04-02T12:18:19.718Z,95820.98
2019-04-02T12:20:51.439Z,95815.27
2019-04-02T12:23:23.193Z,95807.30
2019-04-02T12:25:54.902Z,95801.31
2019-04-02T12:28:26.679Z,95802.23
2019-04-02T12:30:58.413Z,95798.77
2019-04-02T12:33:30.122Z,95793.78
2019-04-02T12:36:04.154Z,95784.70
2019-04-02T12:38:35.259Z,95789.19
2019-04-02T12:41:06.967Z,95779.59
2019-04-02T12:43:38.671Z,95776.44
2019-04-02T12:46:10.464Z,95775.20
2019-04-02T12:48:43.436Z,95765.31
2019-04-02T12:51:15.270Z,95766.76
2019-04-02T12:53:46.976Z,95771.58
2019-04-02T12:56:19.157Z,95745.49
2019-04-02T12:58:50.873Z,95755.43
2019-04-02T13:01:22.579Z,95753.84
2019-04-02T13:03:54.354Z,95748.58
2019-04-02T13:06:26.187Z,95743.33
2019-04-02T13:08:57.973Z,95737.11
2019-04-02T13:11:31.110Z,95739.98
2019-04-02T13:14:04.510Z,95736.80
2019-04-02T13:16:49.153Z,95722.42
2019-04-02T13:19:11.397Z,95728.20
2019-04-02T13:21:43.113Z,95725.55
2019-04-02T13:24:21.802Z,95712.47
2019-04-02T13:26:48.224Z,95710.14
2019-04-02T13:29:19.935Z,95707.81
2019-04-02T13:31:52.044Z,95701.55
2019-04-02T13:34:23.763Z,95690.78
2019-04-02T13:36:55.490Z,95686.50
2019-04-02T13:39:27.535Z,95691.58
2019-04-02T13:41:59.244Z,95683.29
2019-04-02T13:44:32.026Z,95679.71
2019-04-02T13:47:03.737Z,95678.00
2019-04-02T13:49:35.783Z,95674.11
2019-04-02T13:52:07.590Z,95668.38
2019-04-02T13:54:39.338Z,95675.46
2019-04-02T13:57:11.539Z,95671.98
2019-04-02T13:59:43.552Z,95681.55
2019-04-02T14:02:15.617Z,95676.58
2019-04-02T14:04:47.549Z,95686.28
2019-04-02T14:07:19.535Z,95671.27
2019-04-02T14:09:51.694Z,95665.25
2019-04-02T14:12:25.750Z,95667.49
2019-04-02T14:14:56.882Z,95673.09
2019-04-02T14:17:29.729Z,95688.25
2019-04-02T14:20:01.576Z,95697.73
2019-04-02T14:22:33.401Z,95719.16
2019-04-02T14:25:05.628Z,95709.22
2019-04-02T14:27:37.676Z,95751.95
2019-04-02T14:30:09.642Z,95816.36
2019-04-02T14:32:43.430Z,95734.28
2019-04-02T14:35:15.175Z,95713.39
2019-04-02T14:37:46.913Z,95698.09
2019-04-02T14:40:18.779Z,95683.47
2019-04-02T14:42:50.486Z,95673.34
2019-04-02T14:45:22.245Z,95675.35
2019-04-02T14:47:53.970Z,95675.01
2019-04-02T14:50:30.993Z,95680.94
2019-04-02T14:52:59.178Z,95695.09
2019-04-02T14:55:30.945Z,95681.02
2019-04-02T14:58:02.794Z,95667.17
2019-04-02T15:00:34.638Z,95642.55
2019-04-02T15:03:06.497Z,95633.46
2019-04-02T15:05:38.192Z,95633.56
2019-04-02T15:08:10.193Z,95620.82
2019-04-02T15:10:41.923Z,95613.17
2019-04-02T15:13:14.226Z,95617.55
2019-04-02T15:15:46.296Z,95614.62
2019-04-02T15:18:18.096Z,95611.64
2019-04-02T15:20:50.945Z,95612.38
2019-04-02T15:23:22.659Z,95629.22
2019-04-02T15:25:54.680Z,95624.49
2019-04-02T15:28:26.549Z,95607.33
2019-04-02T15:30:59.313Z,95610.84
2019-04-02T15:33:31.018Z,95605.09
2019-04-02T15:36:02.718Z,95622.33
2019-04-02T15:38:34.419Z,95617.70
2019-04-02T15:41:06.308Z,95614.99
2019-04-02T15:43:38.052Z,95622.75
2019-04-02T15:46:09.757Z,95621.52
2019-04-02T15:48:41.817Z,95619.37
2019-04-02T15:51:13.509Z,95611.22
2019-04-02T15:53:45.534Z,95599.88
2019-04-02T15:56:17.233Z,95586.58
2019-04-02T15:58:48.943Z,95584.74
2019-04-02T16:01:20.653Z,95593.35
2019-04-02T16:03:52.404Z,95591.65
2019-04-02T16:06:24.628Z,95577.84
2019-04-02T16:08:56.518Z,95575.08
2019-04-02T16:11:28.215Z,95567.99
2019-04-02T16:13:59.921Z,95568.66
2019-04-02T16:16:32.697Z,95560.47
2019-04-02T16:19:04.577Z,95557.74
2019-04-02T16:21:39.320Z,95560.66
2019-04-02T16:24:11.492Z,95561.12
2019-04-02T16:26:44.501Z,95566.89
2019-04-02T16:29:16.767Z,95562.52
2019-04-02T16:31:48.467Z,95561.94
2019-04-02T16:34:20.362Z,95560.20
2019-04-02T16:36:52.086Z,95565.25
2019-04-02T16:39:23.999Z,95561.83
2019-04-02T16:41:55.940Z,95568.30
2019-04-02T16:44:28.652Z,95560.28
2019-04-02T16:47:00.332Z,95562.95
2019-04-02T16:49:32.032Z,95558.65
2019-04-02T16:52:03.889Z,95562.25
2019-04-02T16:54:35.594Z,95557.84
2019-04-02T16:57:07.770Z,95556.09
2019-04-02T16:59:39.823Z,95559.53
2019-04-02T17:02:13.059Z,95566.36
2019-04-02T17:04:44.765Z,95560.55
2019-04-02T17:07:25.484Z,95557.89
2019-04-02T17:09:50.259Z,95556.66
2019-04-02T17:12:21.954Z,95563.58
2019-04-02T17:14:54.317Z,95558.14
2019-04-02T17:17:26.087Z,95562.34
2019-04-02T17:19:57.782Z,95563.91
2019-04-02T17:22:30.108Z,95573.77
2019-04-02T17:25:01.941Z,95578.62
2019-04-02T17:27:34.166Z,95585.41
2019-04-02T17:30:07.398Z,95587.01
2019-04-02T17:32:39.306Z,95584.05
2019-04-02T17:35:12.642Z,95577.27
2019-04-02T17:37:44.513Z,95584.42
2019-04-02T17:40:16.547Z,95579.75
2019-04-02T17:42:50.046Z,95578.88
2019-04-02T17:45:22.912Z,95574.30
2019-04-02T17:47:56.004Z,95573.12
2019-04-02T17:50:29.253Z,95568.95
2019-04-02T17:53:01.018Z,95573.66
2019-04-02T17:55:33.807Z,95570.38
2019-04-02T17:58:05.904Z,95570.30
2019-04-02T18:00:39.814Z,95572.09
2019-04-02T18:03:11.494Z,95566.45
2019-04-02T18:05:44.449Z,95562.09
2019-04-02T18:08:16.169Z,95567.89
2019-04-02T18:10:47.949Z,95564.81
2019-04-02T18:13:19.666Z,95564.03
2019-04-02T18:15:51.372Z,95557.22
2019-04-02T18:18:23.072Z,95555.50
2019-04-02T18:20:55.063Z,95556.84
2019-04-02T18:23:26.767Z,95557.16
2019-04-02T18:25:58.477Z,95556.55
2019-04-02T18:28:30.171Z,95547.42
2019-04-02T18:31:02.478Z,95547.73
2019-04-02T18:33:34.487Z,95551.89
2019-04-02T18:36:06.344Z,95556.77
2019-04-02T18:38:38.039Z,95558.79
2019-04-02T18:41:10.215Z,95553.89
2019-04-02T18:43:42.233Z,95556.64
2019-04-02T18:46:15.350Z,95558.27
2019-04-02T18:48:47.797Z,95570.13
2019-04-02T18:51:19.594Z,95570.27
2019-04-02T18:53:51.523Z,95570.38
2019-04-02T18:56:25.907Z,95572.78
2019-04-02T18:59:00.081Z,95573.28
2019-04-02T19:01:32.907Z,95572.59
2019-04-02T19:04:05.765Z,95575.55
2019-04-02T19:06:37.475Z,95585.80
2019-04-02T19:09:18.702Z,95582.14
2019-04-02T19:11:46.261Z,95588.16
2019-04-02T19:14:17.970Z,95597.91
2019-04-02T19:16:49.697Z,95597.79
2019-04-02T19:19:22.689Z,95602.25
2019-04-02T19:21:54.709Z,95604.33
2019-04-02T19:24:26.408Z,95605.11
2019-04-02T19:26:58.411Z,95609.38
2019-04-02T19:29:30.527Z,95613.84
2019-04-02T19:32:02.697Z,95615.68
2019-04-02T19:34:34.479Z,95616.72
2019-04-02T19:37:06.330Z,95619.55
2019-04-02T19:39:38.026Z,95609.36
2019-04-02T19:42:09.728Z,95608.05
2019-04-02T19:44:41.427Z,95597.27
2019-04-02T19:47:13.131Z,95587.81
2019-04-02T19:49:44.918Z,95588.81
2019-04-02T19:52:17.111Z,95593.13
2019-04-02T19:54:48.818Z,95588.48
2019-04-02T19:57:20.847Z,95589.69
2019-04-02T19:59:52.644Z,95586.94
2019-04-02T20:02:24.373Z,95591.80
2019-04-02T20:04:56.373Z,95590.48
2019-04-02T20:07:28.096Z,95590.91
2019-04-02T20:09:59.784Z,95584.81
2019-04-02T20:12:31.495Z,95580.89
2019-04-02T20:15:04.606Z,95575.02
2019-04-02T20:17:36.764Z,95567.34
2019-04-02T20:20:09.812Z,95581.55
2019-04-02T20:22:42.148Z,95589.41
2019-04-02T20:25:15.251Z,95588.47
2019-04-02T20:27:47.681Z,95593.23
2019-04-02T20:30:19.455Z,95596.78
2019-04-02T20:32:51.167Z,95599.78
2019-04-02T20:35:24.092Z,95606.06
2019-04-02T20:37:57.923Z,95606.48
2019-04-02T20:40:29.942Z,95605.20
2019-04-02T20:43:01.650Z,95603.69
2019-04-02T20:45:33.356Z,95595.52
2019-04-02T20:48:05.149Z,95584.53
2019-04-02T20:50:38.782Z,95571.38
2019-04-02T20:53:16.614Z,95562.59
2019-04-02T20:55:45.301Z,95564.91
2019-04-02T20:58:17.155Z,95575.83
2019-04-02T21:00:48.948Z,95572.73
2019-04-02T21:03:21.728Z,95577.47
2019-04-02T21:05:57.543Z,95579.44
2019-04-02T21:08:27.161Z,95591.78
2019-04-02T21:11:09.584Z,95592.53
2019-04-02T21:13:32.261Z,95596.37
2019-04-02T21:16:04.153Z,95603.52
2019-04-02T21:18:35.848Z,95610.64
2019-04-02T21:21:07.572Z,95617.66
2019-04-02T21:23:39.283Z,95606.91
2019-04-02T21:26:11.005Z,95605.37
2019-04-02T21:28:42.715Z,95589.57
2019-04-02T21:31:15.534Z,95592.17
2019-04-02T21:33:47.492Z,95601.23
2019-04-02T21:36:19.540Z,95600.09
2019-04-02T21:38:51.235Z,95617.00
2019-04-02T21:41:24.852Z,95620.22
2019-04-02T21:43:56.363Z,95610.60
2019-04-02T21:46:28.047Z,95605.71
2019-04-02T21:49:00.815Z,95607.06
2019-04-02T21:51:32.732Z,95608.57
2019-04-02T21:54:04.609Z,95612.81
2019-04-02T21:56:36.384Z,95621.19
2019-04-02T21:59:08.089Z,95640.20
2019-04-02T22:01:40.664Z,95648.33
2019-04-02T22:04:12.765Z,95653.86
2019-04-02T22:06:44.565Z,95649.72
2019-04-02T22:09:16.360Z,95651.95
2019-04-02T22:11:48.069Z,95648.78
2019-04-02T22:14:19.774Z,95653.34
2019-04-02T22:16:51.746Z,95655.47
2019-04-02T22:19:23.510Z,95652.23
2019-04-02T22:21:55.238Z,95653.27
2019-04-02T22:24:26.950Z,95653.77
2019-04-02T22:26:59.441Z,95652.17
2019-04-02T22:29:31.130Z,95648.87
2019-04-02T22:32:22.054Z,95647.92
2019-04-02T22:34:54.497Z,95654.89
2019-04-02T22:37:26.642Z,95647.32
2019-04-02T22:39:58.322Z,95649.44
2019-04-02T22:42:30.027Z,95637.34
2019-04-02T22:45:01.741Z,95641.52
2019-04-02T22:47:33.454Z,95646.68
2019-04-02T22:50:05.417Z,95649.68
2019-04-02T22:52:37.123Z,95650.94
2019-04-02T22:55:09.182Z,95649.30
2019-04-02T22:57:40.966Z,95656.97
2019-04-02T23:00:13.280Z,95643.08
2019-04-02T23:02:45.446Z,95636.29
2019-04-02T23:05:17.249Z,95631.69
2019-04-02T23:07:49.003Z,95639.48
2019-04-02T23:10:20.692Z,95634.39
2019-04-02T23:12:52.411Z,95640.06
2019-04-02T23:15:24.246Z,95637.56
2019-04-02T23:17:56.537Z,95639.06
2019-04-02T23:20:28.450Z,95629.70
2019-04-02T23:23:00.395Z,95618.33
2019-04-02T23:25:32.478Z,95603.77
2019-04-02T23:28:04.414Z,95590.05
2019-04-02T23:30:36.111Z,95567.01
2019-04-02T23:33:08.075Z,95552.89
2019-04-02T23:35:39.812Z,95546.67
2019-04-02T23:38:11.743Z,95537.59
2019-04-02T23:40:43.445Z,95538.75
2019-04-02T23:43:15.152Z,95531.59
2019-04-02T23:45:46.853Z,95532.41
2019-04-02T23:48:18.631Z,95528.70
2019-04-02T23:50:50.758Z,95532.30
2019-04-02T23:53:22.509Z,95539.66
2019-04-02T23:55:54.321Z,95537.78
2019-04-02T23:58:26.023Z,95547.91
